Portada
METAR-TAF:

METAR-TAF

Aeroports :

Làrnaca, Xipre

latitud: 34-53N, longitud: 033-38E, altitud: 2 m

Observació

L'informe es va fer fa 18 minuts, a les 00:30 UTC
Vent 7 kt del Nord/Nord-Oest
Temperatura 7°C
Humitat 70%
Pressió 1019 hPa
Visibilitat 10 km o més
sense núvols per sota de 1500 mi sense presència de cumulonimbus.

METAR: LCLK 200030Z 33007KT CAVOK 07/02 Q1019 NOSIG

Hora: 02:48 (00:48 UTC)

Pronòstic

L'informe es va fer fa 1 hora i 18 minuts, a les 23:30 UTC
Pronòstic vàlid del 20 a les 00 UTC al 20 a les 24 UTC
Vent 7 kt del Nord-Oest
Visibilitat 10 km o més
Escasses núvols a una alçada de 2500 ft
Evolucionant progressivament
l' 20 a les 08 UTC al 20 a les 11 UTC
Vent 14 kt del Sud/Sud-Oest
Evolucionant progressivament
l' 20 a les 16 UTC al 20 a les 18 UTC
Vent 6 kt del Nord-Oest

TAF: LCLK 192330Z 2000/2024 32007KT 9999 FEW025 BECMG 2008/2011 21014KT BECMG 2016/2018 32006KT

Observacions i pronòstics meteorològics de més de 4000 aeroports (METAR i TAF).

Les estacions disponibles són els punts grocs i vermells al mapa.

Posi el ratolí al punt desitjat per veure el nom de l'estació.

Feu clic per veure les observacions i els pronòstics meteorològics.

Per canviar el mapa: feu clic els botons verds amb una creu de color negre per apropar; al botó verd amb un guió per allunyar la imatge; o en les fletxes verdes per a mapes adjacents.


METAR-TAF: